createdAt,value
2022-10-05T00:01:25.158Z,4.13
2022-10-05T00:03:59.046Z,4.14
2022-10-05T00:06:29.640Z,3.97
2022-10-05T00:08:56.610Z,4.07
2022-10-05T00:11:23.426Z,4.09
2022-10-05T00:13:50.025Z,4.11
2022-10-05T00:16:19.710Z,4.16
2022-10-05T00:18:50.149Z,4.22
2022-10-05T00:21:25.647Z,4.40
2022-10-05T00:23:55.493Z,4.60
2022-10-05T00:26:24.723Z,4.61
2022-10-05T00:28:52.532Z,4.64
2022-10-05T00:31:24.399Z,4.57
2022-10-05T00:33:51.798Z,4.43
2022-10-05T00:36:19.207Z,4.38
2022-10-05T00:38:45.816Z,4.38
2022-10-05T00:41:23.051Z,4.47
2022-10-05T00:44:14.826Z,4.29
2022-10-05T00:46:53.443Z,4.12
2022-10-05T00:49:47.436Z,3.81
2022-10-05T00:52:37.274Z,3.43
2022-10-05T00:55:21.190Z,3.19
2022-10-05T00:58:08.948Z,3.01
2022-10-05T01:00:49.552Z,2.99
2022-10-05T01:03:41.090Z,2.91
2022-10-05T01:06:22.668Z,2.76
2022-10-05T01:08:58.195Z,2.59
2022-10-05T01:11:45.906Z,2.50
2022-10-05T01:14:46.391Z,2.44
2022-10-05T01:17:25.016Z,2.48
2022-10-05T01:20:10.258Z,2.41
2022-10-05T01:22:57.967Z,2.40
2022-10-05T01:25:38.312Z,2.40
2022-10-05T01:28:35.522Z,2.58
2022-10-05T01:31:28.451Z,2.84
2022-10-05T01:34:23.176Z,2.83
2022-10-05T01:37:01.616Z,2.90
2022-10-05T01:39:41.348Z,2.82
2022-10-05T01:42:32.431Z,2.63
2022-10-05T01:45:17.042Z,2.56
2022-10-05T01:47:58.135Z,2.55
2022-10-05T01:50:53.039Z,2.68
2022-10-05T01:53:45.470Z,2.67
2022-10-05T01:56:35.053Z,2.67
2022-10-05T01:59:01.517Z,2.59
2022-10-05T02:01:39.135Z,2.44
2022-10-05T02:07:34.311Z,2.15
2022-10-05T02:10:35.350Z,2.22
2022-10-05T02:13:16.823Z,2.13
2022-10-05T02:15:58.321Z,2.01
2022-10-05T02:18:40.712Z,2.04
2022-10-05T02:21:08.494Z,1.96
2022-10-05T02:23:39.530Z,1.88
2022-10-05T02:26:08.738Z,1.81
2022-10-05T02:28:59.963Z,1.77
2022-10-05T02:31:40.766Z,1.77
2022-10-05T02:34:26.127Z,1.82
2022-10-05T02:37:28.263Z,1.83
2022-10-05T02:40:00.930Z,1.87
2022-10-05T02:42:45.727Z,1.94
2022-10-05T02:45:30.994Z,1.96
2022-10-05T02:48:06.339Z,2.10
2022-10-05T02:51:01.668Z,2.05
2022-10-05T02:53:40.143Z,1.96
2022-10-05T02:56:27.133Z,1.83
2022-10-05T02:59:05.011Z,1.81
2022-10-05T03:01:38.301Z,1.81
2022-10-05T03:04:26.054Z,2.02
2022-10-05T03:07:04.686Z,2.06
2022-10-05T03:09:39.307Z,1.81
2022-10-05T03:12:05.742Z,1.55
2022-10-05T03:14:46.959Z,1.42
2022-10-05T03:17:24.920Z,1.26
2022-10-05T03:20:31.930Z,1.18
2022-10-05T03:23:04.437Z,1.20
2022-10-05T03:25:33.795Z,1.12
2022-10-05T03:28:18.534Z,1.04
2022-10-05T03:30:57.086Z,0.97
2022-10-05T03:33:46.833Z,0.91
2022-10-05T03:36:40.849Z,0.93
2022-10-05T03:39:25.760Z,0.94
2022-10-05T03:42:04.157Z,0.96
2022-10-05T03:44:41.340Z,0.97
2022-10-05T03:47:14.580Z,1.04
2022-10-05T03:50:18.320Z,1.06
2022-10-05T03:52:54.805Z,1.00
2022-10-05T03:55:43.523Z,0.98
2022-10-05T03:58:39.898Z,1.03
2022-10-05T04:01:13.270Z,1.02
2022-10-05T04:03:50.715Z,1.14
2022-10-05T04:06:27.575Z,1.10
2022-10-05T04:09:00.557Z,1.02
2022-10-05T04:11:34.319Z,0.91
2022-10-05T04:14:18.980Z,0.87
2022-10-05T04:16:50.123Z,0.77
2022-10-05T04:19:22.663Z,0.73
2022-10-05T04:21:59.407Z,0.67
2022-10-05T04:25:02.831Z,0.62
2022-10-05T04:27:39.225Z,0.74
2022-10-05T04:30:11.668Z,1.01
2022-10-05T04:32:38.134Z,1.37
2022-10-05T04:35:16.464Z,1.47
2022-10-05T04:38:17.255Z,1.56
2022-10-05T04:40:53.006Z,1.53
2022-10-05T04:43:38.305Z,1.55
2022-10-05T04:46:22.722Z,1.62
2022-10-05T04:49:23.483Z,1.60
2022-10-05T04:52:22.469Z,1.46
2022-10-05T04:55:25.135Z,1.44
2022-10-05T04:58:23.561Z,1.56
2022-10-05T05:01:14.314Z,1.76
2022-10-05T05:04:07.256Z,1.83
2022-10-05T05:06:43.057Z,2.01
2022-10-05T05:09:27.326Z,2.22
2022-10-05T05:12:32.039Z,2.29
2022-10-05T05:15:07.451Z,2.27
2022-10-05T05:17:39.699Z,2.26
2022-10-05T05:20:36.257Z,2.23
2022-10-05T05:23:17.559Z,2.45
2022-10-05T05:26:17.723Z,2.76
2022-10-05T05:28:59.403Z,2.68
2022-10-05T05:31:42.388Z,2.49
2022-10-05T05:34:44.698Z,2.39
2022-10-05T05:37:32.246Z,2.47
2022-10-05T05:40:21.742Z,2.56
2022-10-05T05:42:59.295Z,2.64
2022-10-05T05:45:52.266Z,2.79
2022-10-05T05:48:30.666Z,2.80
2022-10-05T05:51:14.307Z,2.75
2022-10-05T05:53:46.172Z,2.87
2022-10-05T05:56:20.826Z,3.11
2022-10-05T05:58:54.628Z,3.27
2022-10-05T06:01:33.355Z,3.43
2022-10-05T06:04:19.403Z,3.69
2022-10-05T06:06:51.330Z,4.05
2022-10-05T06:09:33.788Z,4.21
2022-10-05T06:12:09.535Z,4.31
2022-10-05T06:14:49.726Z,4.47
2022-10-05T06:17:23.208Z,4.65
2022-10-05T06:19:54.773Z,4.86
2022-10-05T06:22:27.988Z,4.96
2022-10-05T06:25:06.895Z,5.05
2022-10-05T06:27:58.380Z,5.23
2022-10-05T06:30:28.612Z,5.32
2022-10-05T06:33:07.511Z,5.38
2022-10-05T06:36:00.599Z,5.46
2022-10-05T06:38:53.419Z,5.64
2022-10-05T06:41:32.163Z,5.89
2022-10-05T06:44:04.210Z,5.98
2022-10-05T06:47:04.622Z,5.87
2022-10-05T06:49:42.498Z,5.98
2022-10-05T06:52:26.184Z,6.05
2022-10-05T06:55:11.861Z,6.21
2022-10-05T06:57:43.188Z,6.39
2022-10-05T07:00:24.836Z,6.41
2022-10-05T07:03:09.442Z,6.52
2022-10-05T07:05:48.161Z,6.67
2022-10-05T07:08:26.181Z,6.77
2022-10-05T07:11:34.473Z,6.73
2022-10-05T07:14:24.462Z,6.74
2022-10-05T07:17:06.091Z,6.93
2022-10-05T07:19:44.668Z,7.14
2022-10-05T07:22:39.750Z,7.06
2022-10-05T07:25:13.996Z,6.95
2022-10-05T07:28:16.870Z,7.09
2022-10-05T07:31:02.087Z,6.98
2022-10-05T07:33:53.404Z,6.99
2022-10-05T07:36:54.641Z,7.00
2022-10-05T07:39:58.353Z,7.27
2022-10-05T07:42:50.729Z,7.44
2022-10-05T07:45:24.649Z,7.42
2022-10-05T07:48:10.178Z,7.53
2022-10-05T07:50:57.185Z,7.74
2022-10-05T07:53:37.875Z,7.70
2022-10-05T07:56:21.636Z,7.93
2022-10-05T07:58:59.214Z,8.13
2022-10-05T08:01:34.326Z,8.15
2022-10-05T08:04:14.537Z,8.30
2022-10-05T08:06:45.843Z,8.48
2022-10-05T08:09:36.612Z,8.63
2022-10-05T08:12:03.068Z,8.82
2022-10-05T08:14:48.635Z,8.97
2022-10-05T08:17:39.731Z,8.91
2022-10-05T08:20:55.385Z,9.01
2022-10-05T08:23:40.182Z,9.06
2022-10-05T08:26:15.108Z,9.23
2022-10-05T08:29:13.811Z,9.48
2022-10-05T08:31:45.814Z,9.65
2022-10-05T08:34:37.915Z,9.90
2022-10-05T08:37:33.548Z,10.08
2022-10-05T08:40:33.830Z,10.15
2022-10-05T08:43:03.270Z,10.35
2022-10-05T08:46:08.919Z,10.27
2022-10-05T08:48:50.478Z,10.05
2022-10-05T08:51:16.982Z,9.69
2022-10-05T08:54:31.211Z,9.62
2022-10-05T08:57:16.381Z,9.61
2022-10-05T09:00:01.708Z,9.54
2022-10-05T09:02:36.317Z,9.41
2022-10-05T09:05:21.543Z,9.13
2022-10-05T09:08:15.422Z,9.51
2022-10-05T09:10:54.027Z,10.14
2022-10-05T09:13:42.878Z,10.43
2022-10-05T09:16:31.532Z,11.02
2022-10-05T09:19:32.706Z,11.45
2022-10-05T09:22:14.150Z,11.81
2022-10-05T09:24:48.640Z,11.89
2022-10-05T09:27:19.586Z,12.19
2022-10-05T09:29:58.372Z,12.48
2022-10-05T09:32:49.365Z,12.59
2022-10-05T09:35:46.892Z,12.86
2022-10-05T09:38:34.444Z,13.18
2022-10-05T09:41:20.112Z,13.49
2022-10-05T09:44:12.860Z,13.95
2022-10-05T09:46:53.909Z,14.07
2022-10-05T09:49:44.467Z,14.54
2022-10-05T09:52:26.092Z,14.47
2022-10-05T09:55:25.559Z,14.62
2022-10-05T09:58:14.685Z,14.77
2022-10-05T10:00:54.243Z,15.10
2022-10-05T10:04:10.427Z,15.37
2022-10-05T10:07:11.139Z,15.30
2022-10-05T10:09:52.640Z,15.49
2022-10-05T10:12:21.968Z,15.74
2022-10-05T10:15:10.197Z,15.86
2022-10-05T10:18:01.722Z,16.26
2022-10-05T10:20:59.308Z,16.65
2022-10-05T10:24:00.204Z,16.41
2022-10-05T10:27:04.314Z,16.46
2022-10-05T10:29:30.768Z,16.40
2022-10-05T10:32:19.811Z,16.41
2022-10-05T10:34:55.259Z,16.32
2022-10-05T10:37:37.178Z,16.47
2022-10-05T10:40:37.012Z,16.39
2022-10-05T10:43:41.074Z,16.45
2022-10-05T10:46:07.552Z,16.41
2022-10-05T10:48:45.969Z,16.14
2022-10-05T10:51:48.126Z,16.01
2022-10-05T10:54:30.664Z,15.97
2022-10-05T10:57:04.120Z,16.00
2022-10-05T11:00:05.725Z,16.08
2022-10-05T11:03:00.994Z,16.16
2022-10-05T11:05:55.395Z,16.41
2022-10-05T11:08:37.039Z,16.54
2022-10-05T11:11:12.489Z,16.61
2022-10-05T11:13:52.532Z,16.91
2022-10-05T11:16:21.682Z,17.20
2022-10-05T11:19:12.231Z,17.37
2022-10-05T11:21:58.412Z,17.45
2022-10-05T11:25:09.802Z,17.45
2022-10-05T11:28:00.216Z,17.51
2022-10-05T11:30:47.525Z,17.24
2022-10-05T11:33:54.596Z,17.10
2022-10-05T11:36:59.615Z,16.72
2022-10-05T11:39:36.937Z,16.59
2022-10-05T11:42:37.246Z,16.74
2022-10-05T11:45:23.519Z,16.93
2022-10-05T11:48:02.800Z,16.91
2022-10-05T11:50:46.073Z,16.65
2022-10-05T11:53:26.496Z,16.67
2022-10-05T11:56:02.203Z,16.78
2022-10-05T11:58:42.605Z,16.67
2022-10-05T12:01:34.732Z,16.61
2022-10-05T12:04:20.672Z,16.69
2022-10-05T12:07:02.957Z,16.55
2022-10-05T12:10:17.154Z,16.72
2022-10-05T12:13:19.384Z,16.64
2022-10-05T12:16:20.914Z,16.58
2022-10-05T12:18:59.940Z,16.48
2022-10-05T12:21:29.551Z,16.52
2022-10-05T12:24:05.163Z,16.57
2022-10-05T12:26:37.856Z,16.52
2022-10-05T12:29:13.953Z,16.41
2022-10-05T12:31:56.277Z,16.53
2022-10-05T12:34:28.847Z,16.64
2022-10-05T12:37:05.454Z,16.69
2022-10-05T12:39:38.281Z,16.71
2022-10-05T12:42:26.505Z,16.88
2022-10-05T12:45:08.325Z,16.86
2022-10-05T12:47:56.041Z,16.81
2022-10-05T12:50:37.804Z,16.77
2022-10-05T12:53:30.441Z,16.83
2022-10-05T12:55:57.027Z,16.83
2022-10-05T12:58:35.761Z,16.78
2022-10-05T13:01:14.350Z,16.68
2022-10-05T13:03:49.475Z,16.58
2022-10-05T13:06:33.293Z,16.57
2022-10-05T13:09:11.128Z,16.53
2022-10-05T13:11:50.273Z,16.52
2022-10-05T13:14:38.469Z,16.53
2022-10-05T13:17:34.143Z,16.38
2022-10-05T13:20:21.537Z,16.30
2022-10-05T13:23:02.261Z,16.33
2022-10-05T13:25:28.745Z,16.28
2022-10-05T13:28:16.639Z,16.27
2022-10-05T13:30:54.235Z,16.28
2022-10-05T13:33:43.776Z,16.33
2022-10-05T13:36:14.364Z,16.34
2022-10-05T13:38:47.115Z,16.30
2022-10-05T13:41:32.351Z,16.37
2022-10-05T13:44:20.828Z,16.31
2022-10-05T13:47:01.434Z,16.34
2022-10-05T13:49:59.817Z,16.27
2022-10-05T13:52:42.600Z,16.11
2022-10-05T13:55:37.180Z,15.98
2022-10-05T13:58:41.286Z,15.86
2022-10-05T14:01:24.157Z,15.75
2022-10-05T14:04:19.815Z,15.68
2022-10-05T14:06:47.451Z,15.62
2022-10-05T14:09:27.607Z,15.57
2022-10-05T14:12:03.283Z,15.49
2022-10-05T14:14:33.266Z,15.36
2022-10-05T14:19:40.662Z,15.30
2022-10-05T14:22:22.494Z,15.24
2022-10-05T14:24:56.356Z,15.11
2022-10-05T14:27:34.811Z,15.03
2022-10-05T14:30:18.130Z,15.01
2022-10-05T14:33:05.905Z,14.91
2022-10-05T14:35:53.656Z,14.79
2022-10-05T14:38:26.466Z,14.74
2022-10-05T14:41:17.911Z,14.62
2022-10-05T14:43:54.570Z,14.54
2022-10-05T14:46:28.136Z,14.44
2022-10-05T14:49:21.709Z,14.32
2022-10-05T14:51:50.152Z,14.26
2022-10-05T14:54:41.273Z,14.19
2022-10-05T14:57:25.235Z,14.11
2022-10-05T15:00:30.432Z,14.06
2022-10-05T15:03:31.281Z,13.95
2022-10-05T15:06:02.403Z,13.90
2022-10-05T15:09:17.034Z,13.82
2022-10-05T15:11:47.413Z,13.74
2022-10-05T15:14:24.098Z,13.65
2022-10-05T15:16:54.367Z,13.56
2022-10-05T15:19:50.909Z,13.48
2022-10-05T15:22:35.637Z,13.37
2022-10-05T15:25:12.254Z,13.33
2022-10-05T15:28:07.336Z,13.25
2022-10-05T15:30:39.768Z,13.15
2022-10-05T15:33:15.217Z,13.07
2022-10-05T15:36:01.475Z,12.94
2022-10-05T15:38:36.677Z,12.84
2022-10-05T15:41:20.272Z,12.76
2022-10-05T15:43:50.282Z,12.72
2022-10-05T15:46:56.499Z,12.61
2022-10-05T15:49:51.277Z,12.51
2022-10-05T15:52:29.975Z,12.42
2022-10-05T15:55:18.012Z,12.37
2022-10-05T15:57:57.641Z,12.28
2022-10-05T16:00:25.602Z,12.19
2022-10-05T16:03:02.683Z,12.11
2022-10-05T16:05:47.602Z,12.02
2022-10-05T16:08:50.537Z,11.93
2022-10-05T16:11:38.877Z,11.80
2022-10-05T16:14:19.520Z,11.69
2022-10-05T16:16:46.068Z,11.65
2022-10-05T16:19:42.514Z,11.53
2022-10-05T16:22:33.399Z,11.44
2022-10-05T16:25:46.543Z,11.35
2022-10-05T16:28:42.605Z,11.27
2022-10-05T16:31:19.539Z,11.14
2022-10-05T16:34:01.039Z,11.06
2022-10-05T16:36:27.483Z,11.00
2022-10-05T16:39:20.515Z,10.96
2022-10-05T16:41:56.494Z,10.90
2022-10-05T16:45:06.707Z,10.85
2022-10-05T16:47:59.537Z,10.79
2022-10-05T16:50:25.965Z,10.74
2022-10-05T16:52:58.393Z,10.69
2022-10-05T16:55:39.670Z,10.66
2022-10-05T16:58:20.841Z,10.63
2022-10-05T17:01:04.680Z,10.60
2022-10-05T17:03:42.197Z,10.57
2022-10-05T17:06:15.772Z,10.54
2022-10-05T17:08:57.218Z,10.53
2022-10-05T17:11:45.721Z,10.48
2022-10-05T17:14:21.095Z,10.46
2022-10-05T17:17:03.870Z,10.39
2022-10-05T17:19:42.018Z,10.33
2022-10-05T17:22:12.387Z,10.30
2022-10-05T17:25:18.264Z,10.25
2022-10-05T17:28:18.604Z,10.18
2022-10-05T17:31:06.104Z,10.18
2022-10-05T17:33:33.837Z,10.15
2022-10-05T17:36:04.705Z,10.15
2022-10-05T17:38:31.203Z,10.11
2022-10-05T17:41:00.514Z,10.09
2022-10-05T17:43:28.806Z,10.06
2022-10-05T17:45:58.384Z,10.05
2022-10-05T17:48:54.343Z,10.04
2022-10-05T17:51:48.506Z,9.99
2022-10-05T17:54:41.297Z,9.92
2022-10-05T17:57:07.742Z,9.87
2022-10-05T17:59:57.462Z,9.84
2022-10-05T18:02:36.715Z,9.76
2022-10-05T18:05:06.235Z,9.73
2022-10-05T18:07:37.079Z,9.71
2022-10-05T18:10:12.516Z,9.72
2022-10-05T18:12:47.557Z,9.71
2022-10-05T18:15:41.140Z,9.67
2022-10-05T18:18:32.404Z,9.63
2022-10-05T18:21:14.425Z,9.60
2022-10-05T18:23:52.626Z,9.59
2022-10-05T18:26:40.326Z,9.56
2022-10-05T18:29:54.792Z,9.52
2022-10-05T18:32:45.534Z,9.49
2022-10-05T18:35:24.209Z,9.44
2022-10-05T18:38:26.468Z,9.41
2022-10-05T18:41:05.250Z,9.37
2022-10-05T18:43:38.724Z,9.31
2022-10-05T18:46:28.696Z,9.27
2022-10-05T18:49:06.090Z,9.23
2022-10-05T18:52:00.451Z,9.20
2022-10-05T18:54:48.862Z,9.16
2022-10-05T18:57:39.624Z,9.09
2022-10-05T19:00:21.354Z,9.08
2022-10-05T19:03:02.852Z,9.08
2022-10-05T19:05:49.423Z,9.05
2022-10-05T19:08:18.899Z,8.98
2022-10-05T19:10:51.521Z,8.92
2022-10-05T19:13:42.002Z,8.90
2022-10-05T19:16:30.786Z,8.81
2022-10-05T19:19:30.822Z,8.73
2022-10-05T19:22:22.918Z,8.67
2022-10-05T19:24:59.327Z,8.65
2022-10-05T19:27:49.806Z,8.64
2022-10-05T19:30:50.678Z,8.62
2022-10-05T19:33:37.696Z,8.60
2022-10-05T19:36:37.274Z,8.61
2022-10-05T19:39:19.215Z,8.61
2022-10-05T19:42:01.151Z,8.60
2022-10-05T19:44:59.815Z,8.57
2022-10-05T19:47:52.004Z,8.55
2022-10-05T19:50:20.581Z,8.52
2022-10-05T19:52:51.096Z,8.47
2022-10-05T19:55:20.519Z,8.43
2022-10-05T19:57:49.355Z,8.41
2022-10-05T20:00:25.846Z,8.40
2022-10-05T20:03:12.371Z,8.39
2022-10-05T20:05:39.898Z,8.33
2022-10-05T20:08:07.914Z,8.28
2022-10-05T20:10:34.695Z,8.24
2022-10-05T20:13:04.523Z,8.21
2022-10-05T20:15:52.582Z,8.17
2022-10-05T20:19:02.674Z,8.14
2022-10-05T20:21:41.292Z,8.10
2022-10-05T20:24:08.418Z,8.07
2022-10-05T20:27:07.118Z,8.04
2022-10-05T20:29:38.916Z,8.00
2022-10-05T20:32:13.410Z,7.98
2022-10-05T20:34:42.475Z,7.97
2022-10-05T20:37:17.259Z,7.97
2022-10-05T20:39:44.391Z,7.97
2022-10-05T20:42:11.632Z,7.96
2022-10-05T20:44:38.476Z,7.96
2022-10-05T20:47:09.078Z,7.94
2022-10-05T20:49:37.104Z,7.92
2022-10-05T20:52:05.917Z,7.89
2022-10-05T20:54:32.723Z,7.86
2022-10-05T20:56:59.207Z,7.83
2022-10-05T20:59:26.345Z,7.79
2022-10-05T21:01:53.551Z,7.75
2022-10-05T21:04:25.706Z,7.75
2022-10-05T21:06:53.160Z,7.82
2022-10-05T21:09:21.490Z,7.85
2022-10-05T21:11:54.503Z,7.87
2022-10-05T21:14:21.115Z,7.90
2022-10-05T21:16:47.778Z,7.91
2022-10-05T21:19:15.276Z,7.90
2022-10-05T21:21:46.230Z,7.87
2022-10-05T21:24:14.578Z,7.85
2022-10-05T21:26:42.085Z,7.83
2022-10-05T21:29:12.508Z,7.79
2022-10-05T21:31:39.934Z,7.75
2022-10-05T21:34:06.757Z,7.73
2022-10-05T21:36:33.405Z,7.70
2022-10-05T21:39:00.387Z,7.72
2022-10-05T21:41:26.979Z,7.73
2022-10-05T21:43:53.646Z,7.72
2022-10-05T21:46:22.718Z,7.74
2022-10-05T21:48:49.996Z,7.76
2022-10-05T21:51:18.827Z,7.78
2022-10-05T21:53:56.744Z,7.72
2022-10-05T21:56:28.194Z,7.64
2022-10-05T21:58:54.970Z,7.66
2022-10-05T22:01:22.840Z,7.71
2022-10-05T22:03:49.816Z,7.73
2022-10-05T22:06:16.406Z,7.71
2022-10-05T22:08:43.244Z,7.68
2022-10-05T22:11:12.938Z,7.67
2022-10-05T22:13:46.008Z,7.66
2022-10-05T22:16:13.900Z,7.58
2022-10-05T22:18:40.955Z,7.51
2022-10-05T22:21:09.165Z,7.52
2022-10-05T22:23:35.990Z,7.50
2022-10-05T22:26:04.057Z,7.54
2022-10-05T22:28:32.649Z,7.52
2022-10-05T22:31:03.242Z,7.53
2022-10-05T22:33:29.795Z,7.54
2022-10-05T22:36:00.632Z,7.54
2022-10-05T22:38:27.784Z,7.47
2022-10-05T22:40:54.503Z,7.44
2022-10-05T22:43:21.108Z,7.45
2022-10-05T22:45:47.678Z,7.46
2022-10-05T22:48:15.707Z,7.40
2022-10-05T22:50:46.540Z,7.38
2022-10-05T22:53:13.909Z,7.37
2022-10-05T22:55:40.804Z,7.34
2022-10-05T22:58:07.346Z,7.32
2022-10-05T23:00:56.466Z,7.27
2022-10-05T23:03:20.437Z,7.21
2022-10-05T23:05:46.962Z,7.18
2022-10-05T23:08:13.475Z,7.18
2022-10-05T23:10:40.013Z,7.17
2022-10-05T23:13:07.340Z,7.13
2022-10-05T23:15:34.513Z,7.10
2022-10-05T23:18:01.073Z,7.08
2022-10-05T23:20:27.611Z,7.07
2022-10-05T23:22:54.109Z,7.04
2022-10-05T23:25:22.186Z,6.98
2022-10-05T23:27:48.892Z,6.94
2022-10-05T23:30:15.797Z,6.90
2022-10-05T23:32:44.181Z,6.86
2022-10-05T23:35:12.998Z,6.80
2022-10-05T23:37:43.532Z,6.68
2022-10-05T23:40:13.251Z,6.61
2022-10-05T23:42:42.848Z,6.62
2022-10-05T23:45:10.898Z,6.56
2022-10-05T23:47:38.592Z,6.46
2022-10-05T23:50:07.085Z,6.33
2022-10-05T23:52:34.687Z,6.18
2022-10-05T23:55:02.418Z,6.05
2022-10-05T23:57:28.986Z,5.91
2022-10-05T23:59:56.383Z,5.76
